createdAt,value
2016-04-16T00:00:11.133Z,952.96
2016-04-16T00:01:11.136Z,952.94
2016-04-16T00:02:11.139Z,952.93
2016-04-16T00:03:11.158Z,952.94
2016-04-16T00:04:11.161Z,952.95
2016-04-16T00:05:11.163Z,952.93
2016-04-16T00:06:11.166Z,952.9
2016-04-16T00:07:11.168Z,952.91
2016-04-16T00:08:11.187Z,952.93
2016-04-16T00:09:11.190Z,952.99
2016-04-16T00:10:11.192Z,953.01
2016-04-16T00:11:11.210Z,953.09
2016-04-16T00:12:11.212Z,953.08
2016-04-16T00:13:11.215Z,953.12
2016-04-16T00:14:11.218Z,953.13
2016-04-16T00:15:11.237Z,953.17
2016-04-16T00:16:11.224Z,953.16
2016-04-16T00:17:11.243Z,953.18
2016-04-16T00:18:11.260Z,953.18
2016-04-16T00:19:11.248Z,953.15
2016-04-16T00:20:11.265Z,953.15
2016-04-16T00:21:11.268Z,953.14
2016-04-16T00:22:11.271Z,953.13
2016-04-16T00:23:11.290Z,953.09
2016-04-16T00:24:11.293Z,953.13
2016-04-16T00:25:11.295Z,953.12
2016-04-16T00:26:11.298Z,953.14
2016-04-16T00:27:11.316Z,953.1
2016-04-16T00:28:11.319Z,953.07
2016-04-16T00:29:11.322Z,953.03
2016-04-16T00:30:11.324Z,952.95
2016-04-16T00:31:11.342Z,952.87
2016-04-16T00:32:11.344Z,952.86
2016-04-16T00:33:11.347Z,952.82
2016-04-16T00:34:11.350Z,952.79
2016-04-16T00:35:11.369Z,952.8
2016-04-16T00:36:11.372Z,952.86
2016-04-16T00:37:11.390Z,952.89
2016-04-16T00:38:11.377Z,952.89
2016-04-16T00:39:11.395Z,952.87
2016-04-16T00:40:11.398Z,952.83
2016-04-16T00:41:11.401Z,952.83
2016-04-16T00:42:11.418Z,952.82
2016-04-16T00:43:11.421Z,952.82
2016-04-16T00:44:11.423Z,952.83
2016-04-16T00:45:11.426Z,952.93
2016-04-16T00:46:11.445Z,953.03
2016-04-16T00:47:11.448Z,953.1
2016-04-16T00:48:11.451Z,953.13
2016-04-16T00:49:11.454Z,953.23
2016-04-16T00:50:11.471Z,953.22
2016-04-16T00:51:11.474Z,953.2
2016-04-16T00:52:11.476Z,953.2
2016-04-16T00:53:11.480Z,953.21
2016-04-16T00:54:11.498Z,953.13
2016-04-16T00:55:11.501Z,953.01
2016-04-16T00:56:11.504Z,952.9
2016-04-16T00:57:11.522Z,952.82
2016-04-16T00:58:11.525Z,952.78
2016-04-16T00:59:11.527Z,952.69
2016-04-16T01:00:11.530Z,952.63
2016-04-16T01:01:11.532Z,952.57
2016-04-16T01:02:11.550Z,952.53
2016-04-16T01:03:11.553Z,952.55
2016-04-16T01:04:11.556Z,952.58
2016-04-16T01:05:11.622Z,952.55
2016-04-16T01:06:11.577Z,952.54
2016-04-16T01:07:11.596Z,952.52
2016-04-16T01:08:11.598Z,952.54
2016-04-16T01:09:11.601Z,952.59
2016-04-16T01:10:11.604Z,952.58
2016-04-16T01:11:11.621Z,952.59
2016-04-16T01:12:11.624Z,952.6
2016-04-16T01:13:11.626Z,952.57
2016-04-16T01:14:11.646Z,952.59
2016-04-16T01:15:11.648Z,952.56
2016-04-16T01:16:11.651Z,952.53
2016-04-16T01:17:11.668Z,952.54
2016-04-16T01:18:11.671Z,952.53
2016-04-16T01:19:11.674Z,952.56
2016-04-16T01:20:11.692Z,952.55
2016-04-16T01:21:11.696Z,952.51
2016-04-16T01:22:11.698Z,952.51
2016-04-16T01:23:11.701Z,952.47
2016-04-16T01:24:11.719Z,952.45
2016-04-16T01:25:11.722Z,952.44
2016-04-16T01:26:11.739Z,952.43
2016-04-16T01:27:11.742Z,952.44
2016-04-16T01:28:11.761Z,952.45
2016-04-16T01:29:11.764Z,952.53
2016-04-16T01:30:11.766Z,952.62
2016-04-16T01:31:11.769Z,952.63
2016-04-16T01:32:11.772Z,952.67
2016-04-16T01:33:11.790Z,952.74
2016-04-16T01:34:11.793Z,952.73
2016-04-16T01:35:11.905Z,952.72
2016-04-16T01:36:11.813Z,952.76
2016-04-16T01:37:11.816Z,952.77
2016-04-16T01:38:11.819Z,952.81
2016-04-16T01:39:11.837Z,952.79
2016-04-16T01:40:11.840Z,952.79
2016-04-16T01:41:11.843Z,952.79
2016-04-16T01:42:11.860Z,952.75
2016-04-16T01:43:11.863Z,952.71
2016-04-16T01:44:11.866Z,952.62
2016-04-16T01:45:11.885Z,952.6
2016-04-16T01:46:11.888Z,952.57
2016-04-16T01:47:11.891Z,952.48
2016-04-16T01:48:11.893Z,952.46
2016-04-16T01:49:11.912Z,952.44
2016-04-16T01:50:11.914Z,952.43
2016-04-16T01:51:11.932Z,952.41
2016-04-16T01:52:11.934Z,952.43
2016-04-16T01:53:11.937Z,952.44
2016-04-16T01:54:11.956Z,952.47
2016-04-16T01:55:11.959Z,952.44
2016-04-16T01:56:11.962Z,952.43
2016-04-16T01:57:11.964Z,952.39
2016-04-16T01:58:11.983Z,952.34
2016-04-16T01:59:11.985Z,952.31
2016-04-16T02:00:11.988Z,952.25
2016-04-16T02:01:12.021Z,952.22
2016-04-16T02:02:12.008Z,952.17
2016-04-16T02:03:12.015Z,952.17
2016-04-16T02:04:12.017Z,952.18
2016-04-16T02:05:12.083Z,952.16
2016-04-16T02:06:12.039Z,952.25
2016-04-16T02:07:12.057Z,952.29
2016-04-16T02:08:12.059Z,952.3
2016-04-16T02:09:12.062Z,952.31
2016-04-16T02:10:12.065Z,952.34
2016-04-16T02:11:12.084Z,952.38
2016-04-16T02:12:12.087Z,952.43
2016-04-16T02:13:12.089Z,952.45
2016-04-16T02:14:12.108Z,952.47
2016-04-16T02:15:12.110Z,952.48
2016-04-16T02:16:12.113Z,952.48
2016-04-16T02:17:12.130Z,952.47
2016-04-16T02:18:12.133Z,952.43
2016-04-16T02:19:12.136Z,952.41
2016-04-16T02:20:12.139Z,952.38
2016-04-16T02:21:12.157Z,952.37
2016-04-16T02:22:12.163Z,952.36
2016-04-16T02:23:12.180Z,952.33
2016-04-16T02:24:12.183Z,952.3
2016-04-16T02:25:12.185Z,952.28
2016-04-16T02:26:12.188Z,952.28
2016-04-16T02:27:12.207Z,952.27
2016-04-16T02:28:12.209Z,952.29
2016-04-16T02:29:12.213Z,952.31
2016-04-16T02:30:12.231Z,952.29
2016-04-16T02:31:12.234Z,952.35
2016-04-16T02:32:12.236Z,952.43
2016-04-16T02:33:12.254Z,952.41
2016-04-16T02:34:12.256Z,952.43
2016-04-16T02:35:12.259Z,952.43
2016-04-16T02:36:12.262Z,952.44
2016-04-16T02:37:12.281Z,952.45
2016-04-16T02:38:12.284Z,952.39
2016-04-16T02:39:12.286Z,952.38
2016-04-16T02:40:12.305Z,952.37
2016-04-16T02:41:12.307Z,952.41
2016-04-16T02:42:12.310Z,952.39
2016-04-16T02:43:12.327Z,952.36
2016-04-16T02:44:12.371Z,952.37
2016-04-16T02:45:12.417Z,952.38
2016-04-16T02:46:12.478Z,952.41
2016-04-16T02:47:12.524Z,952.39
2016-04-16T02:48:12.569Z,952.38
2016-04-16T02:49:12.603Z,952.38
2016-04-16T02:50:12.621Z,952.37
2016-04-16T02:51:12.639Z,952.36
2016-04-16T02:52:12.657Z,952.36
2016-04-16T02:53:12.692Z,952.32
2016-04-16T02:54:12.700Z,952.3
2016-04-16T02:55:12.708Z,952.33
2016-04-16T02:56:12.733Z,952.33
2016-04-16T02:57:12.741Z,952.32
2016-04-16T02:58:12.749Z,952.31
2016-04-16T02:59:12.769Z,952.32
2016-04-16T03:00:12.774Z,952.28
2016-04-16T03:01:12.778Z,952.26
2016-04-16T03:02:12.800Z,952.24
2016-04-16T03:03:12.804Z,952.26
2016-04-16T03:04:12.823Z,952.25
2016-04-16T03:05:12.811Z,952.18
2016-04-16T03:06:12.830Z,952.21
2016-04-16T03:07:12.834Z,952.16
2016-04-16T03:08:12.837Z,952.13
2016-04-16T03:09:12.855Z,952.11
2016-04-16T03:10:12.858Z,952.04
2016-04-16T03:11:12.878Z,951.96
2016-04-16T03:12:12.881Z,951.9
2016-04-16T03:13:12.884Z,951.87
2016-04-16T03:14:12.901Z,951.83
2016-04-16T03:15:12.904Z,951.79
2016-04-16T03:16:12.907Z,951.83
2016-04-16T03:17:12.909Z,951.86
2016-04-16T03:18:12.928Z,951.81
2016-04-16T03:19:12.930Z,951.85
2016-04-16T03:20:12.950Z,951.83
2016-04-16T03:21:12.952Z,951.87
2016-04-16T03:22:12.955Z,951.83
2016-04-16T03:23:12.957Z,951.83
2016-04-16T03:24:12.975Z,951.81
2016-04-16T03:25:12.977Z,951.83
2016-04-16T03:26:12.980Z,951.81
2016-04-16T03:27:12.999Z,951.82
2016-04-16T03:28:13.002Z,951.84
2016-04-16T03:29:13.021Z,951.76
2016-04-16T03:30:13.023Z,951.71
2016-04-16T03:31:13.026Z,951.66
2016-04-16T03:32:13.029Z,951.65
2016-04-16T03:33:13.031Z,951.63
2016-04-16T03:34:13.049Z,951.61
2016-04-16T03:35:13.051Z,951.57
2016-04-16T03:36:13.054Z,951.59
2016-04-16T03:37:13.057Z,951.52
2016-04-16T03:38:13.091Z,951.55
2016-04-16T03:39:13.078Z,951.54
2016-04-16T03:40:13.096Z,951.57
2016-04-16T03:41:13.099Z,951.61
2016-04-16T03:42:13.101Z,951.63
2016-04-16T03:43:13.105Z,951.58
2016-04-16T03:44:13.123Z,951.57
2016-04-16T03:45:13.126Z,951.58
2016-04-16T03:46:13.128Z,951.57
2016-04-16T03:47:13.147Z,951.55
2016-04-16T03:48:13.150Z,951.56
2016-04-16T03:49:13.152Z,951.5
2016-04-16T03:50:13.170Z,951.52
2016-04-16T03:51:13.172Z,951.51
2016-04-16T03:52:13.192Z,951.5
2016-04-16T03:53:13.194Z,951.48
2016-04-16T03:54:13.197Z,951.48
2016-04-16T03:55:13.199Z,951.48
2016-04-16T03:56:13.218Z,951.48
2016-04-16T03:57:13.221Z,951.45
2016-04-16T03:58:13.223Z,951.47
2016-04-16T03:59:13.241Z,951.43
2016-04-16T04:00:13.243Z,951.45
2016-04-16T04:01:13.246Z,951.41
2016-04-16T04:02:13.265Z,951.41
2016-04-16T04:03:13.268Z,951.46
2016-04-16T04:04:13.271Z,951.45
2016-04-16T04:05:13.273Z,951.42
2016-04-16T04:06:13.291Z,951.39
2016-04-16T04:07:13.293Z,951.4
2016-04-16T04:08:13.296Z,951.39
2016-04-16T04:09:13.299Z,951.4
2016-04-16T04:10:13.318Z,951.42
2016-04-16T04:11:13.321Z,951.43
2016-04-16T04:12:13.339Z,951.42
2016-04-16T04:13:13.342Z,951.37
2016-04-16T04:14:13.344Z,951.37
2016-04-16T04:15:13.347Z,951.4
2016-04-16T04:16:13.365Z,951.43
2016-04-16T04:17:13.367Z,951.45
2016-04-16T04:18:13.386Z,951.47
2016-04-16T04:19:13.373Z,951.46
2016-04-16T04:20:13.392Z,951.51
2016-04-16T04:21:13.411Z,951.48
2016-04-16T04:22:13.397Z,951.48
2016-04-16T04:23:13.416Z,951.44
2016-04-16T04:24:13.418Z,951.41
2016-04-16T04:25:13.436Z,951.44
2016-04-16T04:26:13.438Z,951.43
2016-04-16T04:27:13.441Z,951.44
2016-04-16T04:28:13.444Z,951.48
2016-04-16T04:29:13.463Z,951.44
2016-04-16T04:30:13.466Z,951.4
2016-04-16T04:31:13.468Z,951.35
2016-04-16T04:32:13.486Z,951.33
2016-04-16T04:33:13.488Z,951.33
2016-04-16T04:34:13.492Z,951.32
2016-04-16T04:35:13.510Z,951.32
2016-04-16T04:36:13.513Z,951.37
2016-04-16T04:37:13.516Z,951.36
2016-04-16T04:38:13.518Z,951.34
2016-04-16T04:39:13.537Z,951.31
2016-04-16T04:40:13.539Z,951.31
2016-04-16T04:41:13.542Z,951.33
2016-04-16T04:42:13.559Z,951.33
2016-04-16T04:43:13.563Z,951.33
2016-04-16T04:44:13.565Z,951.34
2016-04-16T04:45:13.584Z,951.37
2016-04-16T04:46:13.587Z,951.38
2016-04-16T04:47:13.589Z,951.36
2016-04-16T04:48:13.608Z,951.32
2016-04-16T04:49:13.625Z,951.27
2016-04-16T04:50:13.909Z,951.18
2016-04-16T04:51:13.613Z,951.15
2016-04-16T04:52:13.631Z,951.1
2016-04-16T04:53:13.634Z,951.08
2016-04-16T04:54:13.637Z,951.09
2016-04-16T04:55:13.655Z,951.09
2016-04-16T04:56:13.658Z,951.16
2016-04-16T04:57:13.660Z,951.21
2016-04-16T04:58:13.678Z,951.23
2016-04-16T04:59:13.680Z,951.32
2016-04-16T05:00:13.684Z,951.31
2016-04-16T05:01:13.702Z,951.37
2016-04-16T05:02:13.705Z,951.35
2016-04-16T05:03:13.724Z,951.38
2016-04-16T05:04:13.710Z,951.4
2016-04-16T05:05:14.072Z,951.39
2016-04-16T05:06:13.731Z,951.4
2016-04-16T05:07:13.734Z,951.4
2016-04-16T05:08:13.755Z,951.43
2016-04-16T05:09:13.758Z,951.4
2016-04-16T05:10:13.760Z,951.43
2016-04-16T05:11:13.763Z,951.38
2016-04-16T05:12:13.781Z,951.4
2016-04-16T05:13:13.785Z,951.42
2016-04-16T05:14:13.787Z,951.39
2016-04-16T05:15:13.946Z,951.41
2016-04-16T05:16:13.809Z,951.39
2016-04-16T05:17:14.014Z,951.37
2016-04-16T05:18:13.828Z,951.31
2016-04-16T05:19:13.831Z,951.32
2016-04-16T05:20:13.834Z,951.26
2016-04-16T05:21:13.853Z,951.21
2016-04-16T05:22:14.059Z,951.16
2016-04-16T05:23:13.859Z,951.17
2016-04-16T05:24:13.876Z,951.14
2016-04-16T05:25:14.129Z,951.1
2016-04-16T05:26:13.929Z,951.09
2016-04-16T05:27:13.900Z,951.07
2016-04-16T05:28:13.902Z,951.05
2016-04-16T05:29:13.906Z,951.02
2016-04-16T05:30:13.924Z,951.03
2016-04-16T05:31:13.974Z,951.01
2016-04-16T05:32:13.930Z,951.03
2016-04-16T05:33:13.995Z,951.06
2016-04-16T05:34:14.294Z,951.02
2016-04-16T05:35:13.952Z,950.97
2016-04-16T05:36:13.955Z,950.97
2016-04-16T05:37:13.974Z,950.92
2016-04-16T05:38:13.977Z,950.87
2016-04-16T05:39:13.979Z,950.86
2016-04-16T05:40:13.982Z,950.84
2016-04-16T05:41:14.001Z,950.83
2016-04-16T05:42:14.254Z,950.82
2016-04-16T05:43:14.021Z,950.85
2016-04-16T05:44:14.071Z,950.84
2016-04-16T05:45:14.386Z,950.8
2016-04-16T05:46:14.029Z,950.81
2016-04-16T05:47:14.345Z,950.82
2016-04-16T05:48:14.050Z,950.77
2016-04-16T05:49:14.163Z,950.83
2016-04-16T05:50:14.071Z,950.8
2016-04-16T05:51:14.074Z,950.8
2016-04-16T05:52:14.076Z,950.76
2016-04-16T05:53:14.095Z,950.79
2016-04-16T05:54:14.411Z,950.77
2016-04-16T05:55:14.303Z,950.79
2016-04-16T05:56:14.119Z,950.75
2016-04-16T05:57:14.122Z,950.79
2016-04-16T05:58:14.374Z,950.79
2016-04-16T05:59:14.236Z,950.77
2016-04-16T06:00:14.144Z,950.78
2016-04-16T06:01:14.445Z,950.85
2016-04-16T06:02:14.150Z,950.83
2016-04-16T06:03:14.169Z,950.82
2016-04-16T06:04:14.327Z,950.86
2016-04-16T06:05:14.190Z,950.87
2016-04-16T06:06:14.583Z,950.87
2016-04-16T06:07:14.195Z,950.85
2016-04-16T06:08:14.213Z,950.91
2016-04-16T06:09:14.216Z,950.83
2016-04-16T06:10:14.218Z,950.86
2016-04-16T06:11:14.331Z,950.8
2016-04-16T06:12:14.224Z,950.76
2016-04-16T06:13:14.243Z,950.68
2016-04-16T06:14:14.340Z,950.67
2016-04-16T06:15:14.357Z,950.61
2016-04-16T06:16:14.266Z,950.59
2016-04-16T06:17:14.566Z,950.59
2016-04-16T06:18:14.272Z,950.61
2016-04-16T06:19:14.290Z,950.57
2016-04-16T06:20:14.293Z,950.66
2016-04-16T06:21:14.311Z,950.66
2016-04-16T06:22:14.407Z,950.72
2016-04-16T06:23:14.316Z,950.78
2016-04-16T06:24:14.320Z,950.76
2016-04-16T06:25:14.634Z,950.83
2016-04-16T06:26:14.340Z,950.85
2016-04-16T06:27:14.343Z,950.84
2016-04-16T06:28:14.658Z,950.83
2016-04-16T06:29:14.660Z,950.81
2016-04-16T06:31:14.369Z,950.74
2016-04-16T06:32:14.388Z,950.75
2016-04-16T06:33:14.390Z,950.66
2016-04-16T06:34:14.643Z,950.64
2016-04-16T06:35:14.411Z,950.68
2016-04-16T06:36:14.413Z,950.61
2016-04-16T06:37:14.527Z,950.6
2016-04-16T06:38:14.435Z,950.64
2016-04-16T06:39:14.438Z,950.67
2016-04-16T06:40:14.440Z,950.67
2016-04-16T06:41:14.458Z,950.71
2016-04-16T06:42:14.461Z,950.68
2016-04-16T06:43:14.464Z,950.71
2016-04-16T06:44:14.733Z,950.72
2016-04-16T06:45:14.829Z,950.68
2016-04-16T06:46:14.488Z,950.67
2016-04-16T06:47:14.490Z,950.67
2016-04-16T06:48:14.509Z,950.66
2016-04-16T06:49:14.762Z,950.64
2016-04-16T06:50:14.529Z,950.66
2016-04-16T06:51:14.532Z,950.63
2016-04-16T06:52:14.535Z,950.66
2016-04-16T06:53:14.538Z,950.64
2016-04-16T06:54:14.556Z,950.61
2016-04-16T06:55:14.559Z,950.58
2016-04-16T06:56:14.874Z,950.64
2016-04-16T06:57:14.720Z,950.62
2016-04-16T06:58:14.583Z,950.64
2016-04-16T06:59:14.586Z,950.57
2016-04-16T07:00:14.947Z,950.57
2016-04-16T07:01:14.606Z,950.53
2016-04-16T07:02:14.906Z,950.52
2016-04-16T07:03:14.674Z,950.49
2016-04-16T07:04:14.630Z,950.48
2016-04-16T07:05:14.633Z,950.45
2016-04-16T07:06:14.650Z,950.4
2016-04-16T07:07:14.903Z,950.38
2016-04-16T07:08:14.656Z,950.4
2016-04-16T07:09:14.674Z,950.46
2016-04-16T07:10:14.677Z,950.43
2016-04-16T07:11:14.679Z,950.45
2016-04-16T07:12:14.683Z,950.44
2016-04-16T07:13:14.702Z,950.45
2016-04-16T07:14:14.843Z,950.39
2016-04-16T07:15:14.707Z,950.4
2016-04-16T07:16:14.865Z,950.38
2016-04-16T07:17:14.727Z,950.41
2016-04-16T07:18:14.730Z,950.42
2016-04-16T07:19:14.748Z,950.42
2016-04-16T07:20:14.954Z,950.43
2016-04-16T07:21:14.753Z,950.46
2016-04-16T07:22:14.787Z,950.43
2016-04-16T07:23:14.790Z,950.44
2016-04-16T07:24:14.777Z,950.42
2016-04-16T07:25:14.780Z,950.36
2016-04-16T07:26:14.798Z,950.37
2016-04-16T07:27:14.801Z,950.37
2016-04-16T07:28:14.803Z,950.4
2016-04-16T07:29:14.822Z,950.42
2016-04-16T07:30:14.825Z,950.41
2016-04-16T07:31:14.828Z,950.39
2016-04-16T07:32:14.846Z,950.4
2016-04-16T07:33:14.848Z,950.4
2016-04-16T07:34:14.867Z,950.37
2016-04-16T07:35:14.869Z,950.41
2016-04-16T07:36:14.872Z,950.37
2016-04-16T07:37:14.875Z,950.36
2016-04-16T07:38:14.893Z,950.35
2016-04-16T07:39:14.896Z,950.34
2016-04-16T07:40:14.898Z,950.35
2016-04-16T07:41:14.916Z,950.36
2016-04-16T07:42:14.920Z,950.37
2016-04-16T07:43:14.921Z,950.37
2016-04-16T07:44:14.940Z,950.38
2016-04-16T07:45:14.943Z,950.39
2016-04-16T07:46:14.946Z,950.33
2016-04-16T07:47:14.965Z,950.41
2016-04-16T07:48:14.968Z,950.38
2016-04-16T07:49:14.970Z,950.41
2016-04-16T07:50:14.988Z,950.43
2016-04-16T07:51:14.990Z,950.44
2016-04-16T07:52:15.009Z,950.42
2016-04-16T07:53:14.996Z,950.39
2016-04-16T07:54:15.015Z,950.43
2016-04-16T07:55:15.017Z,950.4
2016-04-16T07:56:15.035Z,950.42
2016-04-16T07:57:15.038Z,950.43
2016-04-16T07:58:15.041Z,950.45
2016-04-16T07:59:15.058Z,950.48
2016-04-16T08:00:15.061Z,950.53
2016-04-16T08:01:15.065Z,950.58
2016-04-16T08:02:15.067Z,950.62
2016-04-16T08:03:15.085Z,950.61
2016-04-16T08:04:15.088Z,950.7
2016-04-16T08:05:15.091Z,950.69
2016-04-16T08:06:15.109Z,950.74
2016-04-16T08:07:15.127Z,950.78
2016-04-16T08:08:15.114Z,950.79
2016-04-16T08:09:15.133Z,950.88
2016-04-16T08:10:15.136Z,950.88
2016-04-16T08:11:15.154Z,950.95
2016-04-16T08:12:15.157Z,951.01
2016-04-16T08:13:15.159Z,951
2016-04-16T08:14:15.162Z,951.06
2016-04-16T08:15:15.180Z,951.13
2016-04-16T08:16:15.182Z,951.17
2016-04-16T08:17:15.191Z,951.25
2016-04-16T08:18:15.209Z,951.29
2016-04-16T08:19:15.212Z,951.37
2016-04-16T08:20:15.230Z,951.42
2016-04-16T08:21:15.217Z,951.45
2016-04-16T08:22:15.266Z,951.44
2016-04-16T08:23:15.238Z,951.49
2016-04-16T08:24:15.240Z,951.5
2016-04-16T08:25:15.259Z,951.56
2016-04-16T08:26:15.261Z,951.62
2016-04-16T08:27:15.264Z,951.64
2016-04-16T08:28:15.283Z,951.66
2016-04-16T08:29:15.285Z,951.67
2016-04-16T08:30:15.288Z,951.71
2016-04-16T08:31:15.306Z,951.74
2016-04-16T08:32:15.309Z,951.77
2016-04-16T08:33:15.311Z,951.78
2016-04-16T08:34:15.314Z,951.81
2016-04-16T08:35:15.333Z,951.83
2016-04-16T08:36:15.335Z,951.84
2016-04-16T08:37:15.353Z,951.85
2016-04-16T08:38:15.356Z,951.84
2016-04-16T08:39:15.358Z,951.81
2016-04-16T08:40:15.377Z,951.81
2016-04-16T08:41:15.380Z,951.82
2016-04-16T08:42:15.382Z,951.8
2016-04-16T08:43:15.401Z,951.76
2016-04-16T08:44:15.404Z,951.71
2016-04-16T08:45:15.407Z,951.68
2016-04-16T08:46:15.425Z,951.6
2016-04-16T08:47:15.427Z,951.57
2016-04-16T08:48:15.446Z,951.52
2016-04-16T08:49:15.448Z,951.52
2016-04-16T08:50:15.451Z,951.45
2016-04-16T08:51:15.454Z,951.46
2016-04-16T08:52:15.473Z,951.45
2016-04-16T08:53:15.475Z,951.49
2016-04-16T08:54:15.493Z,951.5
2016-04-16T08:55:15.496Z,951.5
2016-04-16T08:56:15.514Z,951.5
2016-04-16T08:57:15.517Z,951.51
2016-04-16T08:58:15.519Z,951.57
2016-04-16T08:59:15.522Z,951.58
2016-04-16T09:00:15.539Z,951.61
2016-04-16T09:01:15.543Z,951.61
2016-04-16T09:02:15.545Z,951.63
2016-04-16T09:03:15.564Z,951.66
2016-04-16T09:04:15.567Z,951.65
2016-04-16T09:05:15.569Z,951.71
2016-04-16T09:06:15.588Z,951.68
2016-04-16T09:07:15.591Z,951.71
2016-04-16T09:08:15.594Z,951.72
2016-04-16T09:09:15.611Z,951.8
2016-04-16T09:10:15.614Z,951.81
2016-04-16T09:11:15.616Z,951.82
2016-04-16T09:12:15.635Z,951.85
2016-04-16T09:13:15.638Z,951.87
2016-04-16T09:14:15.640Z,951.92
2016-04-16T09:15:15.659Z,951.93
2016-04-16T09:16:15.662Z,951.99
2016-04-16T09:17:15.665Z,951.99
2016-04-16T09:18:15.683Z,951.95
2016-04-16T09:19:15.684Z,951.96
2016-04-16T09:20:15.703Z,951.98
2016-04-16T09:21:15.706Z,951.97
2016-04-16T09:22:15.709Z,951.96
2016-04-16T09:23:15.711Z,951.96
2016-04-16T09:24:15.730Z,951.98
2016-04-16T09:25:15.732Z,951.92
2016-04-16T09:26:15.751Z,951.94
2016-04-16T09:27:15.753Z,951.93
2016-04-16T09:28:15.756Z,951.9
2016-04-16T09:29:15.775Z,951.9
2016-04-16T09:30:15.778Z,951.89
2016-04-16T09:31:15.781Z,951.9
2016-04-16T09:32:15.798Z,951.9
2016-04-16T09:33:15.801Z,951.89
2016-04-16T09:34:15.803Z,951.91
2016-04-16T09:35:15.822Z,951.92
2016-04-16T09:36:15.824Z,951.96
2016-04-16T09:37:15.827Z,951.99
2016-04-16T09:38:15.846Z,952.03
2016-04-16T09:39:15.849Z,952.07
2016-04-16T09:40:15.852Z,952.08
2016-04-16T09:41:15.869Z,952.1
2016-04-16T09:42:15.872Z,952.1
2016-04-16T09:43:15.890Z,952.14
2016-04-16T09:44:15.893Z,952.23
2016-04-16T09:45:15.895Z,952.25
2016-04-16T09:46:15.913Z,952.25
2016-04-16T09:47:15.916Z,952.24
2016-04-16T09:48:15.935Z,952.23
2016-04-16T09:49:15.937Z,952.23
2016-04-16T09:50:15.940Z,952.22
2016-04-16T09:51:15.943Z,952.22
2016-04-16T09:52:15.962Z,952.23
2016-04-16T09:53:15.965Z,952.28
2016-04-16T09:54:15.982Z,952.33
2016-04-16T09:55:15.985Z,952.32
2016-04-16T09:56:15.987Z,952.3
2016-04-16T09:57:16.006Z,952.37
2016-04-16T09:58:16.009Z,952.35
2016-04-16T09:59:16.011Z,952.4
2016-04-16T10:00:16.030Z,952.37
2016-04-16T10:01:16.032Z,952.36
2016-04-16T10:02:16.036Z,952.38
2016-04-16T10:03:16.054Z,952.35
2016-04-16T10:04:16.072Z,952.37
2016-04-16T10:05:16.074Z,952.36
2016-04-16T10:06:16.077Z,952.41
2016-04-16T10:07:16.080Z,952.41
2016-04-16T10:08:16.098Z,952.46
2016-04-16T10:09:16.101Z,952.55
2016-04-16T10:10:16.103Z,952.61
2016-04-16T10:11:16.122Z,952.65
2016-04-16T10:12:16.125Z,952.61
2016-04-16T10:13:16.127Z,952.65
2016-04-16T10:14:16.130Z,952.68
2016-04-16T10:15:16.149Z,952.64
2016-04-16T10:16:16.152Z,952.68
2016-04-16T10:17:16.169Z,952.74
2016-04-16T10:18:16.172Z,952.71
2016-04-16T10:19:16.190Z,952.72
2016-04-16T10:20:16.193Z,952.73
2016-04-16T10:21:16.195Z,952.79
2016-04-16T10:22:16.214Z,952.77
2016-04-16T10:23:16.217Z,952.79
2016-04-16T10:24:16.220Z,952.82
2016-04-16T10:25:16.223Z,952.8
2016-04-16T10:26:16.240Z,952.81
2016-04-16T10:27:16.243Z,952.81
2016-04-16T10:28:16.261Z,952.87
2016-04-16T10:29:16.264Z,952.82
2016-04-16T10:30:16.266Z,952.81
2016-04-16T10:31:16.284Z,952.87
2016-04-16T10:32:16.287Z,952.83
2016-04-16T10:33:16.290Z,952.84
2016-04-16T10:34:16.308Z,952.85
2016-04-16T10:35:16.311Z,952.86
2016-04-16T10:36:16.330Z,952.91
2016-04-16T10:37:16.333Z,952.9
2016-04-16T10:38:16.336Z,952.93
2016-04-16T10:39:16.353Z,952.93
2016-04-16T10:40:16.356Z,952.93
2016-04-16T10:41:16.358Z,952.95
2016-04-16T10:42:16.377Z,953
2016-04-16T10:43:16.380Z,952.99
2016-04-16T10:44:16.399Z,953.02
2016-04-16T10:45:16.401Z,953.06
2016-04-16T10:46:16.404Z,953.09
2016-04-16T10:47:16.422Z,953.06
2016-04-16T10:48:16.424Z,953.04
2016-04-16T10:49:16.443Z,953.04
2016-04-16T10:50:16.445Z,953.07
2016-04-16T10:51:16.448Z,953.07
2016-04-16T10:52:16.465Z,953.09
2016-04-16T10:53:16.453Z,953.08
2016-04-16T10:54:16.471Z,953.07
2016-04-16T10:55:16.490Z,953.11
2016-04-16T10:56:16.492Z,953.16
2016-04-16T10:57:16.495Z,953.14
2016-04-16T10:58:16.498Z,953.2
2016-04-16T10:59:16.517Z,953.23
2016-04-16T11:00:16.520Z,953.21
2016-04-16T11:01:16.538Z,953.22
2016-04-16T11:02:16.540Z,953.18
2016-04-16T11:03:16.543Z,953.16
2016-04-16T11:04:16.561Z,953.17
2016-04-16T11:05:16.564Z,953.17
2016-04-16T11:06:16.566Z,953.22
2016-04-16T11:07:16.585Z,953.24
2016-04-16T11:08:16.588Z,953.22
2016-04-16T11:09:16.591Z,953.25
2016-04-16T11:10:16.609Z,953.21
2016-04-16T11:11:16.611Z,953.22
2016-04-16T11:12:16.630Z,953.17
2016-04-16T11:13:16.632Z,953.14
2016-04-16T11:14:16.635Z,953.1
2016-04-16T11:15:16.652Z,953.07
2016-04-16T11:16:16.655Z,953.1
2016-04-16T11:17:16.658Z,953.01
2016-04-16T11:18:16.677Z,952.99
2016-04-16T11:19:16.695Z,952.93
2016-04-16T11:20:16.682Z,952.85
2016-04-16T11:21:16.701Z,952.86
2016-04-16T11:22:16.704Z,952.87
2016-04-16T11:23:16.721Z,952.94
2016-04-16T11:24:16.724Z,952.93
2016-04-16T11:25:16.727Z,952.99
2016-04-16T11:26:16.745Z,953.04
2016-04-16T11:27:16.748Z,953
2016-04-16T11:28:16.751Z,953.04
2016-04-16T11:29:16.769Z,953.06
2016-04-16T11:30:16.772Z,953.09
2016-04-16T11:31:16.774Z,953.05
2016-04-16T11:32:16.793Z,953.04
2016-04-16T11:33:16.795Z,953.11
2016-04-16T11:34:16.798Z,953.08
2016-04-16T11:35:16.817Z,953.05
2016-04-16T11:36:16.819Z,953
2016-04-16T11:37:16.822Z,953.01
2016-04-16T11:38:16.840Z,952.96
2016-04-16T11:39:16.842Z,952.93
2016-04-16T11:40:16.845Z,952.88
2016-04-16T11:41:16.864Z,952.87
2016-04-16T11:42:16.866Z,952.84
2016-04-16T11:43:16.900Z,952.87
2016-04-16T11:44:16.888Z,952.84
2016-04-16T11:45:16.890Z,952.82
2016-04-16T11:46:16.908Z,952.83
2016-04-16T11:47:16.911Z,952.81
2016-04-16T11:48:16.913Z,952.81
2016-04-16T11:49:16.932Z,952.8
2016-04-16T11:50:16.935Z,952.78
2016-04-16T11:51:16.997Z,952.74
2016-04-16T11:52:17.044Z,952.62
2016-04-16T11:53:17.091Z,952.65
2016-04-16T11:54:17.137Z,952.59
2016-04-16T11:55:17.199Z,952.6
2016-04-16T11:56:17.219Z,952.6
2016-04-16T11:57:17.253Z,952.63
2016-04-16T11:58:17.271Z,952.7
2016-04-16T11:59:17.290Z,952.76
2016-04-16T12:00:17.323Z,952.75
2016-04-16T12:01:17.331Z,952.78
2016-04-16T12:02:17.341Z,952.83
2016-04-16T12:03:17.365Z,952.82
2016-04-16T12:04:17.373Z,952.83
2016-04-16T12:05:17.382Z,952.97
2016-04-16T12:06:17.402Z,953.05
2016-04-16T12:07:17.407Z,953.07
2016-04-16T12:08:17.428Z,953.06
2016-04-16T12:09:17.432Z,953.07
2016-04-16T12:10:17.438Z,953.05
2016-04-16T12:11:17.457Z,953.16
2016-04-16T12:12:17.461Z,953.15
2016-04-16T12:13:17.464Z,953.19
2016-04-16T12:14:17.483Z,953.18
2016-04-16T12:15:17.487Z,953.15
2016-04-16T12:16:17.490Z,953.16
2016-04-16T12:17:17.508Z,953.24
2016-04-16T12:18:17.512Z,953.21
2016-04-16T12:19:17.530Z,953.18
2016-04-16T12:20:17.534Z,953.2
2016-04-16T12:21:17.536Z,953.2
2016-04-16T12:22:17.554Z,953.24
2016-04-16T12:23:17.556Z,953.22
2016-04-16T12:24:17.559Z,953.22
2016-04-16T12:25:17.578Z,953.19
2016-04-16T12:26:17.581Z,953.19
2016-04-16T12:27:17.583Z,953.18
2016-04-16T12:28:17.602Z,953.21
2016-04-16T12:29:17.605Z,953.24
2016-04-16T12:30:17.607Z,953.18
2016-04-16T12:31:17.625Z,953.16